Time;durP1;ratioP1;P1;durP2;ratioP2;P2;SDS_P1;SDS_P2;PMS_P1;PMS_P2;Temp;Humidity;BMP_temperature;BMP_pressure;BME280_temperature;BME280_humidity;BME280_pressure;Samples;Min_cycle;Max_cycle;Signal;HPM_P1;HPM_P2
2024/01/23 00:00:21;;;;;;;4.20;1.90;;;5.50;99.90;;;;;;5074116;28;20270;-82
2024/01/23 00:02:47;;;;;;;8.23;2.00;;;5.50;99.90;;;;;;5074057;28;20210;-82
2024/01/23 00:05:12;;;;;;;8.13;2.03;;;5.40;99.90;;;;;;5074130;28;20482;-83
2024/01/23 00:07:38;;;;;;;8.63;2.10;;;5.40;99.90;;;;;;5075623;28;20639;-83
2024/01/23 00:10:04;;;;;;;5.60;1.53;;;5.40;99.90;;;;;;5074301;28;20170;-82
2024/01/23 00:12:30;;;;;;;7.07;1.53;;;5.40;99.90;;;;;;5073611;28;20228;-83
2024/01/23 00:14:57;;;;;;;9.23;1.93;;;5.40;99.90;;;;;;5073959;28;20261;-83
2024/01/23 00:17:22;;;;;;;9.33;1.87;;;5.40;99.90;;;;;;5075409;28;20186;-83
2024/01/23 00:19:48;;;;;;;7.30;2.00;;;5.40;99.90;;;;;;5075684;28;20179;-82
2024/01/23 00:22:13;;;;;;;8.27;2.10;;;5.40;99.90;;;;;;5073717;28;20621;-82
2024/01/23 00:24:39;;;;;;;7.93;1.80;;;5.40;99.90;;;;;;5073862;28;20214;-82
2024/01/23 00:27:04;;;;;;;4.53;1.80;;;5.40;99.90;;;;;;5075268;28;20181;-83
2024/01/23 00:29:30;;;;;;;7.47;1.87;;;5.30;99.90;;;;;;5074714;28;20170;-82
2024/01/23 00:31:56;;;;;;;4.50;1.60;;;5.20;99.90;;;;;;5074045;28;20220;-83
2024/01/23 00:34:21;;;;;;;8.70;1.63;;;5.20;99.90;;;;;;5075259;28;20170;-82
2024/01/23 00:36:47;;;;;;;7.73;2.30;;;5.20;99.90;;;;;;5074909;28;20258;-82
2024/01/23 00:39:13;;;;;;;8.43;2.00;;;5.10;99.90;;;;;;5074961;28;20201;-84
2024/01/23 00:41:39;;;;;;;7.90;1.80;;;5.20;99.90;;;;;;5074500;28;20173;-82
2024/01/23 00:44:05;;;;;;;7.23;1.60;;;5.10;99.90;;;;;;5074942;28;20197;-82
2024/01/23 00:46:30;;;;;;;5.60;1.70;;;5.10;99.90;;;;;;5073300;28;20170;-82
2024/01/23 00:48:56;;;;;;;5.20;1.63;;;5.10;99.90;;;;;;5074592;28;20175;-82
2024/01/23 00:51:21;;;;;;;6.37;1.80;;;5.10;99.90;;;;;;5073491;28;20252;-82
2024/01/23 00:53:47;;;;;;;7.27;1.40;;;5.10;99.90;;;;;;5073768;28;20685;-82
2024/01/23 00:56:12;;;;;;;3.97;1.50;;;5.10;99.90;;;;;;5074975;28;20189;-82
2024/01/23 00:58:38;;;;;;;6.17;1.47;;;5.00;99.90;;;;;;5073698;28;20175;-82
2024/01/23 01:01:04;;;;;;;8.07;1.90;;;5.00;99.90;;;;;;5072573;28;20528;-83
2024/01/23 01:03:29;;;;;;;4.13;1.30;;;5.00;99.90;;;;;;5073332;28;20233;-82
2024/01/23 01:05:55;;;;;;;5.57;1.77;;;5.00;99.90;;;;;;5074793;28;20211;-82
2024/01/23 01:08:21;;;;;;;4.87;1.43;;;5.00;99.90;;;;;;5074458;28;20171;-82
2024/01/23 01:10:47;;;;;;;4.40;1.80;;;5.00;99.90;;;;;;5074173;28;20170;-82
2024/01/23 01:13:12;;;;;;;2.77;1.40;;;5.00;99.90;;;;;;5074130;28;20198;-82
2024/01/23 01:15:38;;;;;;;7.93;1.70;;;5.00;99.90;;;;;;5074530;28;20667;-82
2024/01/23 01:18:07;;;;;;;5.20;1.80;;;4.90;99.90;;;;;;5072666;28;20174;-82
2024/01/23 01:20:33;;;;;;;6.00;1.67;;;4.90;99.90;;;;;;5073789;28;20177;-82
2024/01/23 01:22:59;;;;;;;7.77;1.60;;;4.90;99.90;;;;;;5072406;28;20196;-83
2024/01/23 01:25:25;;;;;;;4.87;1.53;;;4.80;99.90;;;;;;5072380;28;20203;-83
2024/01/23 01:27:51;;;;;;;6.00;1.60;;;4.80;99.90;;;;;;5074263;28;20167;-82
2024/01/23 01:30:16;;;;;;;6.53;1.53;;;4.70;99.90;;;;;;5072130;28;20194;-83
2024/01/23 01:32:42;;;;;;;5.20;1.70;;;4.70;99.90;;;;;;5073157;28;20325;-82
2024/01/23 01:35:07;;;;;;;6.47;1.90;;;4.70;99.90;;;;;;5072354;28;20197;-82
2024/01/23 01:37:33;;;;;;;8.30;1.70;;;4.70;99.90;;;;;;5072485;28;20186;-83
2024/01/23 01:39:59;;;;;;;4.30;1.30;;;4.70;99.90;;;;;;5072392;28;20188;-82
2024/01/23 01:42:24;;;;;;;4.27;1.40;;;4.70;99.90;;;;;;5072159;28;20194;-83
2024/01/23 01:44:50;;;;;;;9.43;1.97;;;4.70;99.90;;;;;;5074137;28;20197;-82
2024/01/23 01:47:17;;;;;;;5.20;1.57;;;4.70;99.90;;;;;;5073611;28;20173;-82
2024/01/23 01:49:43;;;;;;;8.13;1.83;;;4.80;99.90;;;;;;5073820;28;20175;-82
2024/01/23 01:52:10;;;;;;;9.73;1.60;;;4.80;99.90;;;;;;5071766;28;20202;-82
2024/01/23 01:54:38;;;;;;;3.87;1.40;;;4.90;99.90;;;;;;5072162;28;20175;-82
2024/01/23 01:57:04;;;;;;;4.77;1.50;;;5.00;99.90;;;;;;5072445;28;20177;-82
2024/01/23 01:59:29;;;;;;;5.80;1.50;;;4.90;99.90;;;;;;5072511;28;20565;-83
2024/01/23 02:01:56;;;;;;;6.27;1.63;;;4.80;99.90;;;;;;5073212;28;20221;-82
2024/01/23 02:04:21;;;;;;;4.47;1.60;;;4.90;99.90;;;;;;5072352;28;20219;-83
2024/01/23 02:06:47;;;;;;;7.77;1.60;;;4.90;99.90;;;;;;5073421;28;20195;-82
2024/01/23 02:09:13;;;;;;;7.33;1.57;;;4.90;99.90;;;;;;5072034;28;20172;-84
2024/01/23 02:11:57;;;;;;;6.60;1.60;;;4.80;99.90;;;;;;5071909;28;20177;-82
2024/01/23 02:14:23;;;;;;;7.10;2.13;;;4.80;99.90;;;;;;5073157;28;20541;-82
2024/01/23 02:16:49;;;;;;;7.17;1.47;;;4.80;99.90;;;;;;5072247;28;20175;-82
2024/01/23 02:19:15;;;;;;;7.43;1.90;;;4.80;99.90;;;;;;5072137;28;20180;-82
2024/01/23 02:21:41;;;;;;;3.50;1.47;;;4.80;99.90;;;;;;5072812;28;20163;-82
2024/01/23 02:24:07;;;;;;;5.33;1.63;;;4.90;99.90;;;;;;5073413;28;20278;-82
2024/01/23 02:26:33;;;;;;;3.93;1.03;;;4.90;99.90;;;;;;5072178;28;20202;-82
2024/01/23 02:28:58;;;;;;;5.60;1.40;;;4.90;99.90;;;;;;5071609;28;20172;-82
2024/01/23 02:31:24;;;;;;;1.90;0.93;;;5.00;99.90;;;;;;5071510;28;20181;-82
2024/01/23 02:33:49;;;;;;;5.47;1.70;;;5.00;99.90;;;;;;5073217;28;20277;-83
2024/01/23 02:36:15;;;;;;;3.47;1.30;;;5.00;99.90;;;;;;5075632;28;20207;-82
2024/01/23 02:38:41;;;;;;;7.73;1.43;;;4.90;99.90;;;;;;5077518;28;20212;-82
2024/01/23 02:41:06;;;;;;;6.83;1.50;;;4.90;99.90;;;;;;5075670;28;20247;-83
2024/01/23 02:43:32;;;;;;;4.97;1.07;;;4.90;99.90;;;;;;5076958;28;20198;-82
2024/01/23 02:45:58;;;;;;;3.73;1.33;;;4.90;99.90;;;;;;5077268;28;20227;-82
2024/01/23 02:48:23;;;;;;;2.07;1.10;;;4.80;99.90;;;;;;5075964;28;20779;-82
2024/01/23 02:50:49;;;;;;;6.33;1.33;;;4.80;99.90;;;;;;5075200;28;20175;-82
2024/01/23 02:53:15;;;;;;;5.07;1.23;;;4.90;99.90;;;;;;5075916;28;20202;-82
2024/01/23 02:55:41;;;;;;;6.03;1.50;;;4.90;99.90;;;;;;5076009;28;20204;-82
2024/01/23 02:58:08;;;;;;;5.70;1.73;;;4.90;99.90;;;;;;5075851;28;20239;-82
2024/01/23 03:00:35;;;;;;;5.37;1.30;;;5.00;99.90;;;;;;5075136;28;20181;-83
2024/01/23 03:03:03;;;;;;;7.47;1.60;;;5.00;99.90;;;;;;5075575;28;20331;-82
2024/01/23 03:05:28;;;;;;;6.23;1.57;;;5.00;99.90;;;;;;5074983;28;20201;-82
2024/01/23 03:07:54;;;;;;;5.27;1.30;;;5.00;99.90;;;;;;5075494;28;20177;-82
2024/01/23 03:10:20;;;;;;;8.80;1.80;;;5.00;99.90;;;;;;5076230;28;20226;-82
2024/01/23 03:12:46;;;;;;;6.13;1.80;;;5.00;99.90;;;;;;5074959;28;20196;-83
2024/01/23 03:15:12;;;;;;;4.30;1.03;;;5.10;99.90;;;;;;5076305;28;20228;-82
2024/01/23 03:17:37;;;;;;;0.83;0.53;;;5.10;99.90;;;;;;5076534;28;20177;-82
2024/01/23 03:20:04;;;;;;;0.83;0.23;;;4.70;99.90;;;;;;5076753;28;20653;-81
2024/01/23 03:22:29;;;;;;;0.30;0.20;;;4.10;99.90;;;;;;5076570;28;20197;-81
2024/01/23 03:24:55;;;;;;;0.30;0.30;;;3.70;99.90;;;;;;5075883;28;20229;-81
2024/01/23 03:27:21;;;;;;;2.07;0.53;;;3.60;99.90;;;;;;5075939;28;20173;-81
2024/01/23 03:29:47;;;;;;;1.07;0.27;;;3.50;99.90;;;;;;5075283;28;20317;-81
2024/01/23 03:32:13;;;;;;;0.40;0.30;;;3.50;99.90;;;;;;5074200;28;20196;-81
2024/01/23 03:34:40;;;;;;;0.20;0.20;;;3.60;99.90;;;;;;5074634;28;20184;-82
2024/01/23 03:37:06;;;;;;;0.53;0.23;;;3.60;99.90;;;;;;5074754;28;20273;-81
2024/01/23 03:39:32;;;;;;;0.30;0.20;;;3.60;99.90;;;;;;5074751;28;20177;-81
2024/01/23 03:41:58;;;;;;;1.77;0.57;;;3.50;99.90;;;;;;5074166;28;20200;-81
2024/01/23 03:44:24;;;;;;;1.40;0.67;;;3.50;99.90;;;;;;5075801;28;20227;-82
2024/01/23 03:46:51;;;;;;;0.73;0.30;;;3.40;99.90;;;;;;5075314;28;20636;-83
2024/01/23 03:49:17;;;;;;;0.60;0.50;;;3.40;99.90;;;;;;5074413;28;20211;-82
2024/01/23 03:51:44;;;;;;;1.40;0.50;;;3.30;99.90;;;;;;5073905;28;20208;-82
2024/01/23 03:54:09;;;;;;;0.53;0.40;;;3.40;99.90;;;;;;5075988;28;20629;-81
2024/01/23 03:56:35;;;;;;;0.93;0.40;;;3.50;99.90;;;;;;5075313;28;20200;-82
2024/01/23 03:59:01;;;;;;;1.10;0.40;;;3.50;99.90;;;;;;5074108;28;20172;-81
2024/01/23 04:01:26;;;;;;;1.60;0.70;;;3.50;99.90;;;;;;5073602;28;20188;-81
2024/01/23 04:03:52;;;;;;;1.10;0.73;;;3.60;99.90;;;;;;5073584;28;20220;-81
2024/01/23 04:06:17;;;;;;;2.17;1.00;;;3.60;99.90;;;;;;5075795;28;20165;-82
2024/01/23 04:08:43;;;;;;;1.20;0.87;;;3.60;99.90;;;;;;5075770;28;20173;-83
2024/01/23 04:11:09;;;;;;;1.50;0.87;;;3.70;99.90;;;;;;5075021;28;20199;-81
2024/01/23 04:13:36;;;;;;;0.97;0.77;;;3.70;99.90;;;;;;5075330;28;20189;-81
2024/01/23 04:16:02;;;;;;;4.33;1.00;;;3.80;99.90;;;;;;5075284;28;20182;-82
2024/01/23 04:18:28;;;;;;;2.43;0.87;;;3.70;99.90;;;;;;5075122;28;20563;-82
2024/01/23 04:20:53;;;;;;;2.70;0.90;;;3.70;99.90;;;;;;5073663;28;20173;-82
2024/01/23 04:23:19;;;;;;;3.27;1.10;;;3.70;99.90;;;;;;5075379;28;20192;-82
2024/01/23 04:25:44;;;;;;;1.57;0.70;;;3.70;99.90;;;;;;5073633;28;20295;-82
2024/01/23 04:28:10;;;;;;;1.83;0.70;;;3.60;99.90;;;;;;5073374;28;20176;-82
2024/01/23 04:30:35;;;;;;;2.57;0.70;;;3.50;99.90;;;;;;5074605;28;20180;-82
2024/01/23 04:33:01;;;;;;;3.50;0.80;;;3.60;99.90;;;;;;5073208;28;20197;-82
2024/01/23 04:35:27;;;;;;;2.27;0.77;;;3.60;99.90;;;;;;5074644;28;20175;-82
2024/01/23 04:37:52;;;;;;;3.53;1.10;;;3.50;99.90;;;;;;5075186;28;20188;-83
2024/01/23 04:40:18;;;;;;;3.53;1.10;;;3.40;99.90;;;;;;5072619;28;20230;-82
2024/01/23 04:42:44;;;;;;;1.73;0.87;;;3.30;99.90;;;;;;5074699;28;20200;-82
2024/01/23 04:45:10;;;;;;;1.77;0.70;;;3.10;99.90;;;;;;5073225;28;20207;-82
2024/01/23 04:47:35;;;;;;;1.90;0.50;;;3.00;99.90;;;;;;5073051;28;20198;-82
2024/01/23 04:50:01;;;;;;;1.57;0.80;;;2.90;99.90;;;;;;5074078;28;20176;-82
2024/01/23 04:52:27;;;;;;;1.20;0.67;;;2.80;99.90;;;;;;5072943;28;20193;-83
2024/01/23 04:54:53;;;;;;;1.80;0.57;;;2.80;99.90;;;;;;5073092;28;20275;-82
2024/01/23 04:57:18;;;;;;;1.03;0.80;;;2.80;99.90;;;;;;5073561;28;20176;-82
2024/01/23 04:59:44;;;;;;;3.17;0.70;;;2.70;99.90;;;;;;5074272;28;20230;-84
2024/01/23 05:02:10;;;;;;;3.07;0.90;;;2.80;99.90;;;;;;5074391;28;20232;-82
2024/01/23 05:04:36;;;;;;;1.73;0.90;;;2.80;99.90;;;;;;5074172;28;20188;-82
2024/01/23 05:07:01;;;;;;;2.17;0.90;;;2.90;99.90;;;;;;5074342;28;20179;-82
2024/01/23 05:09:31;;;;;;;3.67;0.93;;;2.90;99.90;;;;;;5074063;28;20266;-83
2024/01/23 05:11:59;;;;;;;3.07;1.10;;;2.90;99.90;;;;;;5074142;28;20189;-82
2024/01/23 05:14:25;;;;;;;3.57;1.00;;;2.90;99.90;;;;;;5074872;28;20612;-82
2024/01/23 05:16:51;;;;;;;5.00;1.10;;;2.90;99.90;;;;;;5074042;28;20227;-83
2024/01/23 05:19:17;;;;;;;2.67;0.90;;;2.90;99.90;;;;;;5072270;28;20177;-83
2024/01/23 05:21:43;;;;;;;4.47;1.27;;;2.90;99.90;;;;;;5072964;28;20556;-83
2024/01/23 05:24:08;;;;;;;3.27;1.33;;;2.90;99.90;;;;;;5073488;28;20208;-82
2024/01/23 05:26:34;;;;;;;4.43;1.20;;;2.90;99.90;;;;;;5073428;28;20600;-82
2024/01/23 05:28:59;;;;;;;3.57;1.30;;;2.90;99.90;;;;;;5072926;28;20169;-82
2024/01/23 05:31:25;;;;;;;4.17;1.27;;;2.90;99.90;;;;;;5073160;28;20180;-83
2024/01/23 05:33:50;;;;;;;1.10;1.00;;;2.90;99.90;;;;;;5074234;28;20196;-83
2024/01/23 05:36:18;;;;;;;3.80;1.30;;;2.90;99.90;;;;;;5074668;28;20189;-82
2024/01/23 05:38:43;;;;;;;6.30;1.20;;;2.90;99.90;;;;;;5074390;28;20177;-82
2024/01/23 05:41:09;;;;;;;6.17;1.40;;;2.90;99.90;;;;;;5073521;28;20268;-82
2024/01/23 05:43:35;;;;;;;5.70;1.40;;;3.00;99.90;;;;;;5074093;28;20242;-82
2024/01/23 05:46:02;;;;;;;6.17;1.50;;;3.00;99.90;;;;;;5072703;28;20173;-82
2024/01/23 05:48:28;;;;;;;7.17;1.60;;;3.00;99.90;;;;;;5073039;28;20232;-83
2024/01/23 05:50:53;;;;;;;6.03;1.70;;;2.90;99.90;;;;;;5073575;28;20201;-82
2024/01/23 05:53:19;;;;;;;2.77;1.40;;;2.90;99.90;;;;;;5072705;28;20232;-82
2024/01/23 05:55:44;;;;;;;5.27;1.43;;;2.90;99.90;;;;;;5072779;28;20268;-83
2024/01/23 05:58:10;;;;;;;4.23;1.40;;;2.90;99.90;;;;;;5072791;28;20188;-84
2024/01/23 06:00:35;;;;;;;3.90;1.47;;;2.90;99.90;;;;;;5073830;28;20556;-83
2024/01/23 06:03:01;;;;;;;10.73;1.87;;;2.90;99.90;;;;;;5074032;28;20684;-82
2024/01/23 06:05:26;;;;;;;5.60;1.80;;;2.90;99.90;;;;;;5072566;28;20262;-83
2024/01/23 06:07:52;;;;;;;4.53;1.47;;;2.90;99.90;;;;;;5072600;28;20187;-82
2024/01/23 06:10:18;;;;;;;7.53;1.97;;;2.90;99.90;;;;;;5072196;28;20173;-83
2024/01/23 06:12:44;;;;;;;6.93;2.40;;;2.90;99.90;;;;;;5073712;28;20195;-82
2024/01/23 06:15:10;;;;;;;7.27;1.70;;;2.90;99.90;;;;;;5072693;28;20169;-87
2024/01/23 06:17:36;;;;;;;7.87;2.20;;;2.90;99.90;;;;;;5072556;28;20203;-85
2024/01/23 06:20:07;;;;;;;5.40;1.70;;;2.90;99.90;;;;;;5071732;28;20178;-85
2024/01/23 06:22:33;;;;;;;5.43;1.50;;;2.90;99.90;;;;;;5073452;28;20241;-82
2024/01/23 06:25:09;;;;;;;7.00;1.90;;;2.90;99.90;;;;;;5074726;28;20205;-86
2024/01/23 06:27:35;;;;;;;9.63;1.90;;;2.80;99.90;;;;;;5074287;28;20211;-85
2024/01/23 06:30:01;;;;;;;8.80;2.00;;;2.80;99.90;;;;;;5072518;28;20173;-84
2024/01/23 06:32:27;;;;;;;5.13;1.40;;;2.90;99.90;;;;;;5071198;28;20605;-83
2024/01/23 06:34:52;;;;;;;7.23;1.77;;;3.40;99.90;;;;;;5073109;28;20177;-80
2024/01/23 06:37:19;;;;;;;5.73;1.60;;;3.60;99.90;;;;;;5073430;28;20699;-81
2024/01/23 06:39:44;;;;;;;7.63;1.80;;;3.60;99.90;;;;;;5074829;28;20175;-80
2024/01/23 06:42:10;;;;;;;4.87;1.83;;;3.70;99.90;;;;;;5075497;28;20571;-79
2024/01/23 06:44:36;;;;;;;6.10;1.90;;;3.60;99.90;;;;;;5073825;28;20203;-80
2024/01/23 06:47:02;;;;;;;6.03;1.80;;;3.50;99.90;;;;;;5072419;28;20180;-84
2024/01/23 06:49:27;;;;;;;3.90;1.80;;;3.40;99.90;;;;;;5071987;28;20176;-84
2024/01/23 06:51:53;;;;;;;6.67;2.00;;;3.30;99.90;;;;;;5073527;28;20205;-80
2024/01/23 06:54:18;;;;;;;6.63;2.13;;;3.30;99.90;;;;;;5074202;28;20177;-79
2024/01/23 06:56:45;;;;;;;5.40;2.07;;;3.30;99.90;;;;;;5073838;28;20271;-80
2024/01/23 06:59:12;;;;;;;3.37;1.63;;;3.20;99.90;;;;;;5074054;28;20657;-80
2024/01/23 07:01:38;;;;;;;8.47;1.73;;;3.20;99.90;;;;;;5074202;28;20169;-81
2024/01/23 07:04:04;;;;;;;7.43;1.80;;;3.20;99.90;;;;;;5073544;28;20292;-82
2024/01/23 07:06:29;;;;;;;7.37;1.83;;;3.20;99.90;;;;;;5073039;28;20230;-82
2024/01/23 07:08:55;;;;;;;9.13;2.00;;;3.20;99.90;;;;;;5073089;28;20184;-82
2024/01/23 07:11:20;;;;;;;6.20;1.83;;;3.30;99.90;;;;;;5072446;28;20179;-85
2024/01/23 07:13:46;;;;;;;5.93;1.80;;;3.30;99.90;;;;;;5072348;28;20200;-85
2024/01/23 07:16:12;;;;;;;6.33;1.90;;;3.30;99.90;;;;;;5072636;28;20169;-85
2024/01/23 07:18:37;;;;;;;8.37;2.23;;;3.30;99.90;;;;;;5072385;28;20697;-85
2024/01/23 07:21:04;;;;;;;9.17;1.80;;;3.40;99.90;;;;;;5073156;28;20169;-86
2024/01/23 07:23:29;;;;;;;6.47;2.00;;;3.40;99.90;;;;;;5075529;28;20212;-85
2024/01/23 07:25:55;;;;;;;5.53;2.00;;;3.40;99.90;;;;;;5075019;28;20223;-85
2024/01/23 07:28:20;;;;;;;7.87;1.70;;;3.40;99.90;;;;;;5075834;28;20649;-86
2024/01/23 07:30:46;;;;;;;5.90;2.13;;;3.40;99.90;;;;;;5074456;28;20161;-86
2024/01/23 07:33:12;;;;;;;7.10;1.63;;;3.40;99.90;;;;;;5075821;28;20196;-85
2024/01/23 07:35:37;;;;;;;5.37;2.13;;;3.40;99.90;;;;;;5075555;28;20173;-86
2024/01/23 07:38:03;;;;;;;6.03;1.90;;;3.50;99.90;;;;;;5074236;28;20173;-85
2024/01/23 07:40:28;;;;;;;4.83;1.93;;;3.50;99.90;;;;;;5073763;28;20243;-85
2024/01/23 07:42:54;;;;;;;6.77;1.90;;;3.50;99.90;;;;;;5073551;28;20712;-85
2024/01/23 07:45:20;;;;;;;8.77;2.10;;;3.50;99.90;;;;;;5074148;28;20795;-86
2024/01/23 07:47:45;;;;;;;6.90;1.80;;;3.60;99.90;;;;;;5075409;28;20174;-85
2024/01/23 07:50:12;;;;;;;5.20;1.70;;;3.60;99.90;;;;;;5074902;28;20226;-87
2024/01/23 07:52:37;;;;;;;6.57;2.10;;;3.60;99.90;;;;;;5073937;28;20193;-86
2024/01/23 07:55:03;;;;;;;7.67;2.37;;;3.60;99.90;;;;;;5075359;28;20184;-86
2024/01/23 07:57:29;;;;;;;10.27;2.47;;;3.60;99.90;;;;;;5075259;28;20180;-85
2024/01/23 07:59:54;;;;;;;10.27;2.33;;;3.60;99.90;;;;;;5073959;28;20189;-86
2024/01/23 08:02:20;;;;;;;8.67;2.33;;;3.70;99.90;;;;;;5073135;28;20217;-86
2024/01/23 08:04:45;;;;;;;8.10;2.33;;;3.70;99.90;;;;;;5074766;28;20272;-85
2024/01/23 08:07:11;;;;;;;9.43;3.07;;;3.70;99.90;;;;;;5075279;28;20199;-85
2024/01/23 08:09:36;;;;;;;8.80;2.00;;;3.80;99.90;;;;;;5075070;28;20184;-83
2024/01/23 08:12:05;;;;;;;9.27;1.97;;;3.80;99.90;;;;;;5075066;28;20193;-84
2024/01/23 08:14:30;;;;;;;6.33;2.17;;;3.80;99.90;;;;;;5075264;28;20177;-85
2024/01/23 08:16:56;;;;;;;8.57;2.20;;;3.80;99.90;;;;;;5075728;28;20268;-84
2024/01/23 08:19:21;;;;;;;7.10;2.03;;;3.80;99.90;;;;;;5074582;28;20177;-82
2024/01/23 08:21:49;;;;;;;9.20;2.03;;;3.80;99.90;;;;;;5073823;28;20203;-84
2024/01/23 08:24:14;;;;;;;8.13;2.07;;;3.80;99.90;;;;;;5074043;28;20341;-83
2024/01/23 08:26:40;;;;;;;6.53;1.80;;;3.90;99.90;;;;;;5075537;28;20214;-84
2024/01/23 08:29:07;;;;;;;7.00;2.17;;;3.90;99.90;;;;;;5075403;28;20173;-84
2024/01/23 08:31:33;;;;;;;10.13;1.90;;;3.90;99.90;;;;;;5074082;28;20221;-84
2024/01/23 08:33:59;;;;;;;6.07;2.20;;;3.90;99.90;;;;;;5073590;28;20235;-84
2024/01/23 08:36:24;;;;;;;6.57;2.00;;;4.00;99.90;;;;;;5073910;28;20177;-84
2024/01/23 08:38:50;;;;;;;8.93;2.50;;;4.00;99.90;;;;;;5073541;28;20177;-83
2024/01/23 08:41:16;;;;;;;9.50;1.90;;;4.00;99.90;;;;;;5075088;28;20525;-83
2024/01/23 08:43:41;;;;;;;8.00;2.10;;;4.10;99.90;;;;;;5073935;28;20233;-84
2024/01/23 08:46:07;;;;;;;10.20;3.07;;;4.10;99.90;;;;;;5073297;28;20222;-86
2024/01/23 08:48:33;;;;;;;8.27;3.67;;;4.40;99.90;;;;;;5075834;28;20173;-83
2024/01/23 08:50:58;;;;;;;6.07;2.10;;;4.60;99.90;;;;;;5075576;28;20515;-81
2024/01/23 08:53:24;;;;;;;102.77;25.17;;;4.70;99.90;;;;;;5075683;28;20230;-81
2024/01/23 08:55:49;;;;;;;15.00;3.57;;;4.90;99.90;;;;;;5075620;28;20182;-81
2024/01/23 08:58:19;;;;;;;8.33;2.50;;;4.80;99.90;;;;;;5074083;28;20654;-81
2024/01/23 09:00:45;;;;;;;13.23;3.63;;;5.10;99.90;;;;;;5073946;28;20250;-83
2024/01/23 09:03:11;;;;;;;10.77;2.63;;;5.50;99.90;;;;;;5073705;28;20277;-84
2024/01/23 09:05:36;;;;;;;12.67;3.20;;;5.70;99.90;;;;;;5074308;28;20337;-82
2024/01/23 09:08:02;;;;;;;12.47;4.03;;;5.70;99.90;;;;;;5076261;28;20199;-81
2024/01/23 09:10:28;;;;;;;9.40;3.53;;;5.50;99.90;;;;;;5072679;28;20305;-83
2024/01/23 09:12:53;;;;;;;10.47;2.97;;;5.30;99.90;;;;;;5073385;28;20664;-84
2024/01/23 09:15:19;;;;;;;9.07;3.60;;;5.20;99.90;;;;;;5073134;28;20207;-84
2024/01/23 09:17:45;;;;;;;16.20;7.10;;;5.50;99.90;;;;;;5074242;28;20183;-81
2024/01/23 09:20:11;;;;;;;13.83;2.90;;;5.40;99.90;;;;;;5073446;28;20191;-82
2024/01/23 09:22:37;;;;;;;11.03;2.70;;;5.60;99.90;;;;;;5072818;28;20286;-80
2024/01/23 09:25:05;;;;;;;7.73;2.60;;;5.30;99.90;;;;;;5074398;28;20285;-82
2024/01/23 09:27:30;;;;;;;11.03;3.47;;;5.20;99.90;;;;;;5073638;28;20206;-82
2024/01/23 09:29:56;;;;;;;8.27;2.17;;;5.30;99.90;;;;;;5073558;28;20223;-86
2024/01/23 09:32:21;;;;;;;9.97;2.57;;;5.10;99.90;;;;;;5071643;28;20236;-84
2024/01/23 09:34:47;;;;;;;6.63;2.37;;;5.80;99.90;;;;;;5072193;28;20573;-84
2024/01/23 09:37:13;;;;;;;16.60;7.03;;;5.20;99.90;;;;;;5072563;28;20217;-82
2024/01/23 09:39:39;;;;;;;8.57;2.50;;;5.40;99.90;;;;;;5075051;28;20173;-83
2024/01/23 09:42:05;;;;;;;6.87;2.20;;;5.30;99.90;;;;;;5072648;28;20215;-83
2024/01/23 09:44:31;;;;;;;9.50;2.60;;;5.20;99.90;;;;;;5073040;28;20201;-83
2024/01/23 09:46:57;;;;;;;18.07;6.57;;;4.90;99.90;;;;;;5074484;28;20264;-82
2024/01/23 09:49:26;;;;;;;11.97;3.10;;;5.60;99.90;;;;;;5073702;28;20236;-77
2024/01/23 09:51:54;;;;;;;6.73;2.13;;;6.00;99.90;;;;;;5072038;28;20191;-77
2024/01/23 09:54:23;;;;;;;9.07;2.50;;;5.90;99.90;;;;;;5074865;28;20642;-79
2024/01/23 09:56:49;;;;;;;7.47;2.20;;;6.10;99.90;;;;;;5075328;28;20179;-79
2024/01/23 09:59:15;;;;;;;6.30;2.00;;;6.00;99.90;;;;;;5075080;28;20176;-79
2024/01/23 10:01:41;;;;;;;6.07;2.17;;;6.30;99.90;;;;;;5074524;28;20185;-79
2024/01/23 10:04:06;;;;;;;8.00;2.20;;;5.90;99.90;;;;;;5077203;28;20191;-80
2024/01/23 10:06:33;;;;;;;11.33;2.30;;;6.00;99.90;;;;;;5077618;28;20642;-81
2024/01/23 10:08:59;;;;;;;8.87;2.43;;;6.00;99.90;;;;;;5077184;28;20229;-81
2024/01/23 10:11:28;;;;;;;9.67;2.40;;;6.10;99.90;;;;;;5077105;28;20176;-79
2024/01/23 10:13:58;;;;;;;9.77;2.40;;;5.80;99.90;;;;;;5076947;28;20175;-81
2024/01/23 10:16:25;;;;;;;11.97;3.50;;;5.90;99.90;;;;;;5073918;28;20192;-81
2024/01/23 10:18:51;;;;;;;10.30;2.43;;;5.90;99.90;;;;;;5075753;28;20175;-80
2024/01/23 10:21:23;;;;;;;6.90;1.87;;;5.80;99.90;;;;;;5074108;28;20176;-79
2024/01/23 10:23:50;;;;;;;12.00;2.17;;;5.70;99.90;;;;;;5074933;28;20286;-78
2024/01/23 10:26:20;;;;;;;8.07;2.47;;;5.70;99.90;;;;;;5073113;28;20183;-79
2024/01/23 10:28:46;;;;;;;7.33;2.40;;;5.60;99.90;;;;;;5073789;28;20207;-81
2024/01/23 10:31:12;;;;;;;9.00;2.40;;;5.60;99.90;;;;;;5072772;28;20203;-79
2024/01/23 10:33:38;;;;;;;9.30;2.30;;;5.70;99.90;;;;;;5073843;28;20248;-78
2024/01/23 10:36:05;;;;;;;10.30;2.37;;;5.60;99.90;;;;;;5073844;28;20183;-79
2024/01/23 10:38:35;;;;;;;6.00;1.97;;;5.60;99.90;;;;;;5073102;28;20212;-78
2024/01/23 10:41:03;;;;;;;9.70;2.40;;;5.80;99.90;;;;;;5073968;28;20192;-79
2024/01/23 10:43:30;;;;;;;10.33;2.23;;;6.00;99.90;;;;;;5072984;28;20667;-79
2024/01/23 10:45:58;;;;;;;7.63;2.60;;;6.10;99.90;;;;;;5073233;28;20202;-79
2024/01/23 10:48:25;;;;;;;10.13;2.93;;;6.10;99.90;;;;;;5072882;28;20241;-78
2024/01/23 10:51:00;;;;;;;8.90;2.77;;;6.20;99.90;;;;;;5073653;28;20552;-78
2024/01/23 10:53:34;;;;;;;8.93;2.80;;;6.30;99.90;;;;;;5073184;28;20221;-80
2024/01/23 10:56:00;;;;;;;10.87;2.40;;;6.40;99.90;;;;;;5073471;28;20659;-78
2024/01/23 10:58:35;;;;;;;9.47;2.43;;;6.70;99.90;;;;;;5076585;28;20704;-79
2024/01/23 11:01:02;;;;;;;6.77;1.87;;;6.90;99.90;;;;;;5076300;28;20175;-79
2024/01/23 11:03:32;;;;;;;10.97;2.50;;;6.80;1.00;;;;;;5097173;22;20228;-79
2024/01/23 11:06:04;;;;;;;12.63;2.63;;;6.70;1.00;;;;;;5058074;28;20221;-78
2024/01/23 11:08:29;;;;;;;7.80;2.37;;;6.70;1.00;;;;;;5076403;28;20168;-79
2024/01/23 11:11:14;;;;;;;5.23;1.80;;;6.70;1.00;;;;;;5075788;28;20164;-79
2024/01/23 11:13:43;;;;;;;10.80;2.67;;;6.70;1.00;;;;;;5057838;28;20185;-79
2024/01/23 11:16:09;;;;;;;8.53;2.17;;;6.70;1.00;;;;;;5057884;28;20240;-79
2024/01/23 11:18:35;;;;;;;8.33;3.23;;;6.70;1.00;;;;;;5075980;28;20299;-78
2024/01/23 11:21:04;;;;;;;13.17;5.47;;;6.60;1.00;;;;;;5057871;28;20177;-79
2024/01/23 11:23:35;;;;;;;9.83;2.20;;;6.60;1.00;;;;;;5075934;28;20197;-78
2024/01/23 11:26:03;;;;;;;6.10;2.10;;;6.50;1.00;;;;;;5075752;28;20196;-79
2024/01/23 11:28:33;;;;;;;8.73;3.13;;;6.50;1.00;;;;;;5076001;28;20176;-79
2024/01/23 11:31:22;;;;;;;7.90;2.77;;;6.40;1.00;;;;;;5075320;28;20566;-79
2024/01/23 11:33:51;;;;;;;8.73;2.50;;;6.50;1.00;;;;;;5075386;28;20711;-78
2024/01/23 11:36:27;;;;;;;6.73;2.40;;;6.60;1.00;;;;;;5075616;28;20531;-78
2024/01/23 11:38:58;;;;;;;8.70;2.53;;;6.60;1.00;;;;;;5057812;28;20172;-78
2024/01/23 11:41:27;;;;;;;7.13;2.20;;;6.50;1.00;;;;;;5075030;28;20203;-78
2024/01/23 11:44:13;;;;;;;11.70;1.87;;;6.60;1.00;;;;;;5075304;28;20208;-78
2024/01/23 11:46:40;;;;;;;7.00;2.27;;;6.60;1.00;;;;;;5075176;28;20172;-78
2024/01/23 11:49:06;;;;;;;4.27;1.90;;;6.60;1.00;;;;;;5075824;28;20210;-79
2024/01/23 11:51:37;;;;;;;5.60;1.80;;;6.70;99.90;;;;;;5056553;28;20200;-79
2024/01/23 11:54:09;;;;;;;7.53;1.87;;;6.70;99.90;;;;;;5057273;28;20276;-79
2024/01/23 11:56:39;;;;;;;12.03;2.20;;;6.80;99.90;;;;;;5057315;28;20283;-79
2024/01/23 11:59:05;;;;;;;10.03;2.37;;;6.90;99.90;;;;;;5057510;28;20314;-79
2024/01/23 12:01:32;;;;;;;5.40;2.30;;;7.10;1.00;;;;;;5074641;28;20263;-79
2024/01/23 12:03:58;;;;;;;6.57;2.13;;;7.20;90.10;;;;;;5057086;28;20273;-80
2024/01/23 12:06:25;;;;;;;11.63;2.40;;;7.40;1.00;;;;;;5074826;28;20173;-81
2024/01/23 12:08:51;;;;;;;9.87;2.43;;;7.40;99.90;;;;;;5057007;28;20169;-80
2024/01/23 12:11:18;;;;;;;6.37;2.10;;;7.30;1.00;;;;;;5074465;28;20181;-80
2024/01/23 12:13:50;;;;;;;8.07;2.13;;;7.30;99.90;;;;;;5075775;28;20221;-79
2024/01/23 12:16:17;;;;;;;6.17;1.80;;;7.50;1.00;;;;;;5075365;28;20177;-78
2024/01/23 12:18:44;;;;;;;7.33;1.90;;;7.50;40.50;;;;;;5057721;28;20284;-79
2024/01/23 12:21:11;;;;;;;7.97;2.23;;;7.60;99.90;;;;;;5057510;28;20223;-78
2024/01/23 12:23:37;;;;;;;9.53;2.00;;;7.60;1.00;;;;;;5075201;28;20216;-79
2024/01/23 12:26:03;;;;;;;8.57;2.37;;;7.60;1.00;;;;;;5057486;28;20680;-78
2024/01/23 12:28:32;;;;;;;9.50;1.90;;;7.60;1.00;;;;;;5058208;28;20225;-79
2024/01/23 12:30:58;;;;;;;9.07;2.77;;;7.40;99.90;;;;;;5057319;28;20172;-79
2024/01/23 12:33:25;;;;;;;5.87;2.00;;;7.40;1.00;;;;;;5056929;28;20569;-80
2024/01/23 12:35:51;;;;;;;7.80;2.63;;;7.40;1.00;;;;;;5056559;28;20169;-80
2024/01/23 12:38:18;;;;;;;7.03;2.10;;;7.40;99.90;;;;;;5056366;28;20172;-80
2024/01/23 12:40:44;;;;;;;7.13;1.90;;;7.50;1.00;;;;;;5055743;28;20173;-80
2024/01/23 12:43:10;;;;;;;4.90;2.13;;;7.40;1.00;;;;;;5073836;28;20200;-81
2024/01/23 12:45:35;;;;;;;6.37;1.80;;;7.40;1.00;;;;;;5055980;28;20262;-80
2024/01/23 12:48:02;;;;;;;8.33;2.10;;;7.60;99.90;;;;;;5074284;28;20222;-81
2024/01/23 12:50:29;;;;;;;12.47;3.67;;;7.80;99.90;;;;;;5055379;28;20257;-81
2024/01/23 12:52:56;;;;;;;7.33;2.00;;;7.80;1.00;;;;;;5056042;28;20196;-81